Weather at Long Lellang Airport

Public forecast

Using degrees Celsius for public forecast. Weather courtesy of forecast.io.

Closest aviation weather report (METAR) to Long Lellang Airport

Closest report is Miri Airport, 88.4 nm (163.7 km) NW. Retrieved 2022/08/10 17:00 UTC (15 minutes ago):

WBGR 101700Z VRB02KT 9999 FEW016 27/25 Q1009

Closest aviation forecast (TAF) to Long Lellang Airport

Closest forecast is Miri Airport, 88.4 nm (163.7 km) NW. Retrieved 2022/08/10 12:00 UTC (5 hours ago):

TAF WBGR 101100Z 1012/1112 08005KT 9999 FEW016